sensor_id;sensor_type;location;lat;lon;timestamp;pressure;altitude;pressure_sealevel;temperature;humidity
78509;BME280;67802;50.846;7.958;2023-05-19T00:01:09;98670.78;;;19.13;33.03
78509;BME280;67802;50.846;7.958;2023-05-19T00:03:35;98669.09;;;19.12;33.06
78509;BME280;67802;50.846;7.958;2023-05-19T00:06:05;98663.94;;;19.11;33.16
78509;BME280;67802;50.846;7.958;2023-05-19T00:08:33;98666.66;;;19.09;32.99
78509;BME280;67802;50.846;7.958;2023-05-19T00:10:59;98662.47;;;19.07;32.87
78509;BME280;67802;50.846;7.958;2023-05-19T00:13:25;98659.94;;;19.05;33.10
78509;BME280;67802;50.846;7.958;2023-05-19T00:15:52;98656.56;;;19.03;33.11
78509;BME280;67802;50.846;7.958;2023-05-19T00:18:17;98657.50;;;19.02;33.15
78509;BME280;67802;50.846;7.958;2023-05-19T00:20:42;98645.38;;;19.00;33.22
78509;BME280;67802;50.846;7.958;2023-05-19T00:23:09;98651.56;;;18.98;33.19
78509;BME280;67802;50.846;7.958;2023-05-19T00:25:34;98654.31;;;18.97;33.08
78509;BME280;67802;50.846;7.958;2023-05-19T00:27:59;98642.09;;;18.96;33.39
78509;BME280;67802;50.846;7.958;2023-05-19T00:30:26;98639.63;;;18.93;33.26
78509;BME280;67802;50.846;7.958;2023-05-19T00:32:51;98638.75;;;18.92;33.17
78509;BME280;67802;50.846;7.958;2023-05-19T00:35:17;98637.94;;;18.92;33.26
78509;BME280;67802;50.846;7.958;2023-05-19T00:37:44;98632.00;;;18.88;33.04
78509;BME280;67802;50.846;7.958;2023-05-19T00:40:09;98636.44;;;18.88;33.44
78509;BME280;67802;50.846;7.958;2023-05-19T00:42:34;98632.22;;;18.85;33.37
78509;BME280;67802;50.846;7.958;2023-05-19T00:45:00;98640.03;;;18.87;33.34
78509;BME280;67802;50.846;7.958;2023-05-19T00:47:25;98628.75;;;18.84;33.36
78509;BME280;67802;50.846;7.958;2023-05-19T00:49:50;98633.06;;;18.86;33.17
78509;BME280;67802;50.846;7.958;2023-05-19T00:52:16;98635.69;;;18.86;33.17
78509;BME280;67802;50.846;7.958;2023-05-19T00:54:42;98633.06;;;18.86;33.41
78509;BME280;67802;50.846;7.958;2023-05-19T00:57:08;98631.94;;;18.90;33.13
78509;BME280;67802;50.846;7.958;2023-05-19T00:59:33;98625.72;;;18.91;33.33
78509;BME280;67802;50.846;7.958;2023-05-19T01:01:59;98630.03;;;18.92;33.18
78509;BME280;67802;50.846;7.958;2023-05-19T01:04:27;98627.22;;;18.95;33.16
78509;BME280;67802;50.846;7.958;2023-05-19T01:06:53;98632.31;;;18.98;33.07
78509;BME280;67802;50.846;7.958;2023-05-19T01:09:22;98625.03;;;19.02;33.11
78509;BME280;67802;50.846;7.958;2023-05-19T01:11:49;98624.75;;;19.06;33.01
78509;BME280;67802;50.846;7.958;2023-05-19T01:14:14;98634.13;;;19.10;32.84
78509;BME280;67802;50.846;7.958;2023-05-19T01:16:46;98626.69;;;19.17;32.93
78509;BME280;67802;50.846;7.958;2023-05-19T01:30:14;98627.97;;;19.37;32.61
78509;BME280;67802;50.846;7.958;2023-05-19T01:32:41;98627.78;;;19.40;32.74
78509;BME280;67802;50.846;7.958;2023-05-19T01:35:09;98639.06;;;19.42;32.76
78509;BME280;67802;50.846;7.958;2023-05-19T01:37:37;98633.69;;;19.44;32.57
78509;BME280;67802;50.846;7.958;2023-05-19T01:40:04;98631.91;;;19.45;32.54
78509;BME280;67802;50.846;7.958;2023-05-19T01:42:30;98637.91;;;19.47;32.58
78509;BME280;67802;50.846;7.958;2023-05-19T01:45:02;98643.94;;;19.49;32.33
78509;BME280;67802;50.846;7.958;2023-05-19T01:47:28;98640.22;;;19.51;32.63
78509;BME280;67802;50.846;7.958;2023-05-19T01:49:53;98637.50;;;19.53;32.51
78509;BME280;67802;50.846;7.958;2023-05-19T01:52:19;98641.72;;;19.55;32.32
78509;BME280;67802;50.846;7.958;2023-05-19T01:54:44;98631.91;;;19.57;32.44
78509;BME280;67802;50.846;7.958;2023-05-19T02:00:15;98640.22;;;19.64;32.41
78509;BME280;67802;50.846;7.958;2023-05-19T02:06:09;98636.34;;;19.70;32.31
78509;BME280;67802;50.846;7.958;2023-05-19T02:11:01;98629.94;;;19.74;32.14
78509;BME280;67802;50.846;7.958;2023-05-19T02:13:30;98628.84;;;19.77;32.19
78509;BME280;67802;50.846;7.958;2023-05-19T02:16:04;98630.56;;;19.78;32.27
78509;BME280;67802;50.846;7.958;2023-05-19T02:18:31;98626.97;;;19.79;32.16
78509;BME280;67802;50.846;7.958;2023-05-19T02:20:57;98622.56;;;19.79;32.18
78509;BME280;67802;50.846;7.958;2023-05-19T02:23:23;98615.47;;;19.80;32.15
78509;BME280;67802;50.846;7.958;2023-05-19T02:25:48;98618.97;;;19.80;32.15
78509;BME280;67802;50.846;7.958;2023-05-19T02:28:13;98618.09;;;19.80;32.26
78509;BME280;67802;50.846;7.958;2023-05-19T02:30:38;98617.16;;;19.81;32.25
78509;BME280;67802;50.846;7.958;2023-05-19T02:33:04;98622.56;;;19.79;32.17
78509;BME280;67802;50.846;7.958;2023-05-19T02:35:31;98629.50;;;19.80;32.18
78509;BME280;67802;50.846;7.958;2023-05-19T02:37:56;98614.66;;;19.79;32.33
78509;BME280;67802;50.846;7.958;2023-05-19T02:40:21;98623.50;;;19.78;32.13
78509;BME280;67802;50.846;7.958;2023-05-19T02:42:47;98622.63;;;19.78;32.14
78509;BME280;67802;50.846;7.958;2023-05-19T02:45:13;98617.50;;;19.76;32.30
78509;BME280;67802;50.846;7.958;2023-05-19T02:47:38;98618.31;;;19.77;32.30
78509;BME280;67802;50.846;7.958;2023-05-19T02:50:04;98616.63;;;19.76;32.22
78509;BME280;67802;50.846;7.958;2023-05-19T02:52:30;98620.22;;;19.75;32.15
78509;BME280;67802;50.846;7.958;2023-05-19T02:54:55;98618.53;;;19.73;32.14
78509;BME280;67802;50.846;7.958;2023-05-19T02:57:20;98618.53;;;19.73;32.22
78509;BME280;67802;50.846;7.958;2023-05-19T02:59:46;98616.84;;;19.72;32.22
78509;BME280;67802;50.846;7.958;2023-05-19T03:02:11;98614.19;;;19.72;32.15
78509;BME280;67802;50.846;7.958;2023-05-19T03:04:36;98615.06;;;19.73;32.19
78509;BME280;67802;50.846;7.958;2023-05-19T03:07:06;98621.16;;;19.73;32.19
78509;BME280;67802;50.846;7.958;2023-05-19T03:09:31;98621.16;;;19.73;32.19
78509;BME280;67802;50.846;7.958;2023-05-19T03:11:56;98614.13;;;19.74;32.27
78509;BME280;67802;50.846;7.958;2023-05-19T03:14:27;98614.00;;;19.76;32.10
78509;BME280;67802;50.846;7.958;2023-05-19T03:16:53;98620.00;;;19.78;32.16
78509;BME280;67802;50.846;7.958;2023-05-19T03:19:20;98612.84;;;19.80;32.19
78509;BME280;67802;50.846;7.958;2023-05-19T03:21:45;98616.22;;;19.82;32.10
78509;BME280;67802;50.846;7.958;2023-05-19T03:24:12;98619.38;;;19.87;31.97
78509;BME280;67802;50.846;7.958;2023-05-19T03:26:37;98615.69;;;19.90;31.93
78509;BME280;67802;50.846;7.958;2023-05-19T03:29:02;98614.66;;;19.92;31.88
78509;BME280;67802;50.846;7.958;2023-05-19T03:31:28;98617.91;;;19.96;31.81
78509;BME280;67802;50.846;7.958;2023-05-19T03:33:54;98601.06;;;19.98;31.93
78509;BME280;67802;50.846;7.958;2023-05-19T03:36:22;98606.13;;;20.01;31.78
78509;BME280;67802;50.846;7.958;2023-05-19T03:38:47;98608.63;;;20.03;31.81
78509;BME280;67802;50.846;7.958;2023-05-19T03:41:12;98605.91;;;20.05;31.76
78509;BME280;67802;50.846;7.958;2023-05-19T03:43:37;98597.03;;;20.06;32.08
78509;BME280;67802;50.846;7.958;2023-05-19T03:46:03;98598.72;;;20.07;31.81
78509;BME280;67802;50.846;7.958;2023-05-19T03:48:28;98602.19;;;20.07;31.88
78509;BME280;67802;50.846;7.958;2023-05-19T03:50:53;98609.16;;;20.08;31.78
78509;BME280;67802;50.846;7.958;2023-05-19T03:53:19;98610.00;;;20.09;31.83
78509;BME280;67802;50.846;7.958;2023-05-19T03:55:45;98609.91;;;20.10;31.71
78509;BME280;67802;50.846;7.958;2023-05-19T03:58:11;98612.53;;;20.10;31.73
78509;BME280;67802;50.846;7.958;2023-05-19T04:00:39;98611.59;;;20.11;31.70
78509;BME280;67802;50.846;7.958;2023-05-19T04:03:04;98616.75;;;20.13;31.73
78509;BME280;67802;50.846;7.958;2023-05-19T04:05:29;98610.50;;;20.14;31.76
78509;BME280;67802;50.846;7.958;2023-05-19T04:07:55;98612.19;;;20.15;31.68
78509;BME280;67802;50.846;7.958;2023-05-19T04:10:20;98618.41;;;20.14;31.76
78509;BME280;67802;50.846;7.958;2023-05-19T04:12:46;98613.16;;;20.14;31.75
78509;BME280;67802;50.846;7.958;2023-05-19T04:15:12;98620.84;;;20.17;31.66
78509;BME280;67802;50.846;7.958;2023-05-19T04:17:37;98619.91;;;20.18;31.67
78509;BME280;67802;50.846;7.958;2023-05-19T04:20:03;98624.97;;;20.21;31.62
78509;BME280;67802;50.846;7.958;2023-05-19T04:22:31;98615.13;;;20.23;31.57
78509;BME280;67802;50.846;7.958;2023-05-19T04:24:56;98616.63;;;20.27;31.57
78509;BME280;67802;50.846;7.958;2023-05-19T04:27:22;98625.91;;;20.33;31.55
78509;BME280;67802;50.846;7.958;2023-05-19T04:29:47;98617.66;;;20.38;31.50
78509;BME280;67802;50.846;7.958;2023-05-19T04:32:13;98615.53;;;20.43;31.40
78509;BME280;67802;50.846;7.958;2023-05-19T04:34:41;98616.78;;;20.50;31.24
78509;BME280;67802;50.846;7.958;2023-05-19T04:37:10;98620.88;;;20.54;31.28
78509;BME280;67802;50.846;7.958;2023-05-19T04:39:36;98630.16;;;20.60;31.25
78509;BME280;67802;50.846;7.958;2023-05-19T04:42:07;98625.50;;;20.64;31.15
78509;BME280;67802;50.846;7.958;2023-05-19T04:44:33;98622.53;;;20.68;31.19
78509;BME280;67802;50.846;7.958;2023-05-19T04:46:58;98617.84;;;20.72;31.03
78509;BME280;67802;50.846;7.958;2023-05-19T04:49:24;98623.88;;;20.74;31.05
78509;BME280;67802;50.846;7.958;2023-05-19T04:51:49;98623.69;;;20.77;31.05
78509;BME280;67802;50.846;7.958;2023-05-19T04:54:15;98628.72;;;20.80;31.07
78509;BME280;67802;50.846;7.958;2023-05-19T04:56:40;98628.50;;;20.83;30.92
78509;BME280;67802;50.846;7.958;2023-05-19T04:59:08;98619.63;;;20.84;30.78
78509;BME280;67802;50.846;7.958;2023-05-19T05:01:34;98620.38;;;20.86;30.75
78509;BME280;67802;50.846;7.958;2023-05-19T05:04:04;98621.09;;;20.88;30.78
78509;BME280;67802;50.846;7.958;2023-05-19T05:06:29;98621.09;;;20.88;30.82
78509;BME280;67802;50.846;7.958;2023-05-19T05:08:55;98622.78;;;20.89;30.70
78509;BME280;67802;50.846;7.958;2023-05-19T05:11:21;98625.34;;;20.91;30.61
78509;BME280;67802;50.846;7.958;2023-05-19T05:13:47;98627.03;;;20.92;30.82
78509;BME280;67802;50.846;7.958;2023-05-19T05:16:13;98623.28;;;20.95;30.71
78509;BME280;67802;50.846;7.958;2023-05-19T05:18:38;98629.31;;;20.97;30.64
78509;BME280;67802;50.846;7.958;2023-05-19T05:21:05;98626.53;;;20.98;30.57
78509;BME280;67802;50.846;7.958;2023-05-19T05:23:31;98628.34;;;20.98;30.64
78509;BME280;67802;50.846;7.958;2023-05-19T05:25:56;98622.13;;;20.99;30.65
78509;BME280;67802;50.846;7.958;2023-05-19T05:28:22;98624.63;;;21.00;31.01
78509;BME280;67802;50.846;7.958;2023-05-19T05:30:47;98623.56;;;21.03;30.60
78509;BME280;67802;50.846;7.958;2023-05-19T05:33:13;98619.97;;;21.04;30.73
78509;BME280;67802;50.846;7.958;2023-05-19T05:35:39;98616.25;;;21.07;30.60
78509;BME280;67802;50.846;7.958;2023-05-19T05:38:04;98619.53;;;21.10;30.65
78509;BME280;67802;50.846;7.958;2023-05-19T05:40:30;98617.63;;;21.12;30.64
78509;BME280;67802;50.846;7.958;2023-05-19T05:42:56;98629.66;;;21.16;30.67
78509;BME280;67802;50.846;7.958;2023-05-19T05:45:23;98623.16;;;21.20;30.61
78509;BME280;67802;50.846;7.958;2023-05-19T05:47:49;98623.88;;;21.23;30.72
78509;BME280;67802;50.846;7.958;2023-05-19T05:50:15;98619.31;;;21.25;30.56
78509;BME280;67802;50.846;7.958;2023-05-19T05:52:45;98620.91;;;21.27;30.51
78509;BME280;67802;50.846;7.958;2023-05-19T05:55:11;98617.31;;;21.28;30.65
78509;BME280;67802;50.846;7.958;2023-05-19T05:57:36;98627.75;;;21.30;30.74
78509;BME280;67802;50.846;7.958;2023-05-19T06:00:03;98620.56;;;21.32;30.59
78509;BME280;67802;50.846;7.958;2023-05-19T06:02:34;98625.75;;;21.33;30.65
78509;BME280;67802;50.846;7.958;2023-05-19T06:05:00;98620.31;;;21.35;30.60
78509;BME280;67802;50.846;7.958;2023-05-19T06:07:26;98628.25;;;21.35;30.64
78509;BME280;67802;50.846;7.958;2023-05-19T06:09:51;98624.66;;;21.36;30.69
78509;BME280;67802;50.846;7.958;2023-05-19T06:12:17;98624.66;;;21.36;30.56
78509;BME280;67802;50.846;7.958;2023-05-19T06:14:42;98628.16;;;21.37;30.69
78509;BME280;67802;50.846;7.958;2023-05-19T06:17:07;98628.03;;;21.38;30.68
78509;BME280;67802;50.846;7.958;2023-05-19T06:19:33;98621.91;;;21.38;30.62
78509;BME280;67802;50.846;7.958;2023-05-19T06:21:58;98616.63;;;21.38;30.62
78509;BME280;67802;50.846;7.958;2023-05-19T06:24:23;98621.91;;;21.38;30.74
78509;BME280;67802;50.846;7.958;2023-05-19T06:26:48;98622.75;;;21.38;30.78
78509;BME280;67802;50.846;7.958;2023-05-19T06:29:14;98617.44;;;21.38;30.61
78509;BME280;67802;50.846;7.958;2023-05-19T06:31:39;98617.44;;;21.38;30.87
78509;BME280;67802;50.846;7.958;2023-05-19T06:34:04;98617.44;;;21.38;30.66
78509;BME280;67802;50.846;7.958;2023-05-19T06:36:30;98616.63;;;21.38;30.65
78509;BME280;67802;50.846;7.958;2023-05-19T06:38:56;98616.63;;;21.38;30.67
78509;BME280;67802;50.846;7.958;2023-05-19T06:41:21;98617.44;;;21.38;30.92
78509;BME280;67802;50.846;7.958;2023-05-19T06:43:47;98616.72;;;21.36;30.81
78509;BME280;67802;50.846;7.958;2023-05-19T06:46:12;98614.09;;;21.36;31.00
78509;BME280;67802;50.846;7.958;2023-05-19T06:48:38;98612.41;;;21.35;30.90
78509;BME280;67802;50.846;7.958;2023-05-19T06:51:03;98618.63;;;21.34;30.72
78509;BME280;67802;50.846;7.958;2023-05-19T06:53:29;98609.03;;;21.33;30.78
78509;BME280;67802;50.846;7.958;2023-05-19T06:55:55;98614.31;;;21.33;30.82
78509;BME280;67802;50.846;7.958;2023-05-19T06:58:20;98606.38;;;21.33;30.88
78509;BME280;67802;50.846;7.958;2023-05-19T07:00:45;98607.34;;;21.32;31.01
78509;BME280;67802;50.846;7.958;2023-05-19T07:03:10;98603.00;;;21.31;30.96
78509;BME280;67802;50.846;7.958;2023-05-19T07:05:36;98610.94;;;21.31;31.21
78509;BME280;67802;50.846;7.958;2023-05-19T07:08:01;98611.91;;;21.30;30.94
78509;BME280;67802;50.846;7.958;2023-05-19T07:10:27;98604.94;;;21.29;31.08
78509;BME280;67802;50.846;7.958;2023-05-19T07:12:52;98607.56;;;21.29;31.14
78509;BME280;67802;50.846;7.958;2023-05-19T07:15:18;98608.53;;;21.28;31.10
78509;BME280;67802;50.846;7.958;2023-05-19T07:17:43;98605.88;;;21.28;30.94
78509;BME280;67802;50.846;7.958;2023-05-19T07:20:09;98612.03;;;21.28;31.08
78509;BME280;67802;50.846;7.958;2023-05-19T07:22:35;98605.88;;;21.28;31.13
78509;BME280;67802;50.846;7.958;2023-05-19T07:25:01;98604.94;;;21.29;31.25
78509;BME280;67802;50.846;7.958;2023-05-19T07:27:26;98597.00;;;21.29;31.26
78509;BME280;67802;50.846;7.958;2023-05-19T07:29:51;98599.53;;;21.30;31.25
78509;BME280;67802;50.846;7.958;2023-05-19T07:32:17;98593.16;;;21.33;31.29
78509;BME280;67802;50.846;7.958;2023-05-19T07:34:43;98586.81;;;21.35;31.17
78509;BME280;67802;50.846;7.958;2023-05-19T07:37:08;98588.38;;;21.38;31.36
78509;BME280;67802;50.846;7.958;2023-05-19T07:39:34;98592.59;;;21.41;30.92
78509;BME280;67802;50.846;7.958;2023-05-19T07:42:00;98593.19;;;21.44;31.16
78509;BME280;67802;50.846;7.958;2023-05-19T07:44:25;98586.00;;;21.46;31.15
78509;BME280;67802;50.846;7.958;2023-05-19T07:46:51;98584.91;;;21.49;30.93
78509;BME280;67802;50.846;7.958;2023-05-19T07:49:17;98591.88;;;21.50;30.93
78509;BME280;67802;50.846;7.958;2023-05-19T07:51:42;98585.53;;;21.53;31.08
78509;BME280;67802;50.846;7.958;2023-05-19T07:54:08;98589.97;;;21.52;31.02
78509;BME280;67802;50.846;7.958;2023-05-19T07:56:33;98584.56;;;21.54;30.89
78509;BME280;67802;50.846;7.958;2023-05-19T07:58:58;98589.00;;;21.53;31.01
78509;BME280;67802;50.846;7.958;2023-05-19T08:01:24;98584.56;;;21.54;30.92
78509;BME280;67802;50.846;7.958;2023-05-19T08:03:50;98577.47;;;21.54;30.99
78509;BME280;67802;50.846;7.958;2023-05-19T08:06:15;98586.50;;;21.52;31.04
78509;BME280;67802;50.846;7.958;2023-05-19T08:08:40;98578.44;;;21.42;31.04
78509;BME280;67802;50.846;7.958;2023-05-19T08:11:06;98584.78;;;21.39;31.18
78509;BME280;67802;50.846;7.958;2023-05-19T08:13:31;98579.22;;;21.31;31.03
78509;BME280;67802;50.846;7.958;2023-05-19T08:15:57;98579.69;;;21.25;31.20
78509;BME280;67802;50.846;7.958;2023-05-19T08:18:24;98586.66;;;21.26;31.51
78509;BME280;67802;50.846;7.958;2023-05-19T08:20:50;98578.72;;;21.26;31.46
78509;BME280;67802;50.846;7.958;2023-05-19T08:23:15;98584.75;;;21.28;31.07
78509;BME280;67802;50.846;7.958;2023-05-19T08:25:41;98575.84;;;21.29;31.05
78509;BME280;67802;50.846;7.958;2023-05-19T08:28:07;98577.53;;;21.30;31.29
78509;BME280;67802;50.846;7.958;2023-05-19T08:30:32;98569.63;;;21.30;31.39
78509;BME280;67802;50.846;7.958;2023-05-19T08:32:57;98568.66;;;21.31;31.24
78509;BME280;67802;50.846;7.958;2023-05-19T08:35:23;98566.97;;;21.30;31.38
78509;BME280;67802;50.846;7.958;2023-05-19T08:37:48;98557.25;;;21.30;31.41
78509;BME280;67802;50.846;7.958;2023-05-19T08:40:16;98554.72;;;21.29;31.56
78509;BME280;67802;50.846;7.958;2023-05-19T08:42:43;98552.22;;;21.27;31.31
78509;BME280;67802;50.846;7.958;2023-05-19T08:45:09;98545.25;;;21.26;31.41
78509;BME280;67802;50.846;7.958;2023-05-19T08:47:35;98547.03;;;21.26;31.40
78509;BME280;67802;50.846;7.958;2023-05-19T08:50:05;98549.66;;;21.26;31.57
78509;BME280;67802;50.846;7.958;2023-05-19T08:52:50;98548.94;;;21.24;31.47
78509;BME280;67802;50.846;7.958;2023-05-19T08:58:10;98537.78;;;21.20;31.45
78509;BME280;67802;50.846;7.958;2023-05-19T09:00:36;98534.31;;;21.19;31.66
78509;BME280;67802;50.846;7.958;2023-05-19T09:03:03;98530.94;;;21.17;31.62
78509;BME280;67802;50.846;7.958;2023-05-19T09:05:29;98539.09;;;21.14;31.44
78509;BME280;67802;50.846;7.958;2023-05-19T09:07:54;98536.69;;;21.11;31.10
78509;BME280;67802;50.846;7.958;2023-05-19T09:10:21;98532.34;;;21.10;31.43
78509;BME280;67802;50.846;7.958;2023-05-19T09:12:46;98540.50;;;21.07;31.48
78509;BME280;67802;50.846;7.958;2023-05-19T09:15:15;98538.81;;;21.06;31.19
78509;BME280;67802;50.846;7.958;2023-05-19T09:17:44;98538.09;;;21.04;31.25
78509;BME280;67802;50.846;7.958;2023-05-19T09:20:10;98535.69;;;21.01;31.30
78509;BME280;67802;50.846;7.958;2023-05-19T09:22:44;98537.59;;;20.99;31.59
78509;BME280;67802;50.846;7.958;2023-05-19T09:25:50;98527.38;;;20.94;31.49
78509;BME280;67802;50.846;7.958;2023-05-19T09:28:36;98530.97;;;20.93;31.56
78509;BME280;67802;50.846;7.958;2023-05-19T09:33:27;98520.75;;;20.88;31.52
78509;BME280;67802;50.846;7.958;2023-05-19T09:35:54;98519.06;;;20.87;31.67
78509;BME280;67802;50.846;7.958;2023-05-19T09:38:21;98513.06;;;20.85;31.69
78509;BME280;67802;50.846;7.958;2023-05-19T09:40:47;98507.91;;;20.84;31.58
78509;BME280;67802;50.846;7.958;2023-05-19T09:43:14;98509.69;;;20.83;31.68
78509;BME280;67802;50.846;7.958;2023-05-19T09:45:39;98514.25;;;20.81;31.61
78509;BME280;67802;50.846;7.958;2023-05-19T09:48:05;98512.56;;;20.80;31.72
78509;BME280;67802;50.846;7.958;2023-05-19T09:50:31;98510.03;;;20.79;31.84
78509;BME280;67802;50.846;7.958;2023-05-19T09:52:56;98506.66;;;20.76;31.70
78509;BME280;67802;50.846;7.958;2023-05-19T09:55:24;98516.34;;;20.76;31.78
78509;BME280;67802;50.846;7.958;2023-05-19T09:57:54;98514.66;;;20.75;31.64
78509;BME280;67802;50.846;7.958;2023-05-19T10:00:20;98500.72;;;20.73;31.50
78509;BME280;67802;50.846;7.958;2023-05-19T10:02:47;98503.50;;;20.71;31.61
78509;BME280;67802;50.846;7.958;2023-05-19T10:05:17;98509.75;;;20.70;31.64
78509;BME280;67802;50.846;7.958;2023-05-19T10:07:51;98501.91;;;20.69;31.42
78509;BME280;67802;50.846;7.958;2023-05-19T10:10:19;98502.19;;;20.66;31.32
78509;BME280;67802;50.846;7.958;2023-05-19T10:12:45;98495.22;;;20.65;31.36
78509;BME280;67802;50.846;7.958;2023-05-19T10:15:13;98498.91;;;20.62;31.81
78509;BME280;67802;50.846;7.958;2023-05-19T10:17:40;98490.25;;;20.60;31.52
78509;BME280;67802;50.846;7.958;2023-05-19T10:20:13;98487.75;;;20.58;31.64
78509;BME280;67802;50.846;7.958;2023-05-19T10:22:40;98486.06;;;20.57;31.81
78509;BME280;67802;50.846;7.958;2023-05-19T10:25:07;98482.69;;;20.55;31.74
78509;BME280;67802;50.846;7.958;2023-05-19T10:27:35;98486.38;;;20.53;31.53
78509;BME280;67802;50.846;7.958;2023-05-19T10:30:06;98482.91;;;20.52;31.84
78509;BME280;67802;50.846;7.958;2023-05-19T10:32:34;98475.09;;;20.51;31.64
78509;BME280;67802;50.846;7.958;2023-05-19T10:37:42;98479.66;;;20.49;31.70
78509;BME280;67802;50.846;7.958;2023-05-19T10:40:35;98470.03;;;20.48;31.72
78509;BME280;67802;50.846;7.958;2023-05-19T10:43:34;98467.53;;;20.46;31.69
78509;BME280;67802;50.846;7.958;2023-05-19T10:46:01;98471.94;;;20.45;31.78
78509;BME280;67802;50.846;7.958;2023-05-19T10:48:32;98467.63;;;20.44;31.85
78509;BME280;67802;50.846;7.958;2023-05-19T10:50:57;98473.84;;;20.43;31.49
78509;BME280;67802;50.846;7.958;2023-05-19T10:53:29;98468.72;;;20.42;31.85
78509;BME280;67802;50.846;7.958;2023-05-19T10:55:55;98473.38;;;20.38;31.91
78509;BME280;67802;50.846;7.958;2023-05-19T10:58:48;98475.16;;;20.38;32.11
78509;BME280;67802;50.846;7.958;2023-05-19T11:01:15;98470.75;;;20.38;32.26
78509;BME280;67802;50.846;7.958;2023-05-19T11:03:48;98461.00;;;20.39;32.03
78509;BME280;67802;50.846;7.958;2023-05-19T11:06:30;98469.78;;;20.39;32.21
78509;BME280;67802;50.846;7.958;2023-05-19T11:09:08;98461.88;;;20.39;32.30
78509;BME280;67802;50.846;7.958;2023-05-19T11:11:51;98459.47;;;20.36;32.19
78509;BME280;67802;50.846;7.958;2023-05-19T11:14:26;98465.41;;;20.27;31.33
78509;BME280;67802;50.846;7.958;2023-05-19T11:16:55;98459.47;;;20.12;31.44
78509;BME280;67802;50.846;7.958;2023-05-19T11:19:31;98458.97;;;19.94;31.70
78509;BME280;67802;50.846;7.958;2023-05-19T11:22:07;98446.88;;;19.78;31.38
78509;BME280;67802;50.846;7.958;2023-05-19T11:29:49;98435.13;;;19.58;31.76
78509;BME280;67802;50.846;7.958;2023-05-19T11:32:15;98445.13;;;19.53;31.14
78509;BME280;67802;50.846;7.958;2023-05-19T11:34:43;98436.72;;;19.48;31.58
78509;BME280;67802;50.846;7.958;2023-05-19T11:37:08;98429.03;;;19.45;31.92
78509;BME280;67802;50.846;7.958;2023-05-19T11:39:34;98437.34;;;19.38;31.19
78509;BME280;67802;50.846;7.958;2023-05-19T11:42:00;98428.81;;;19.35;31.65
78509;BME280;67802;50.846;7.958;2023-05-19T11:44:25;98423.03;;;19.30;31.63
78509;BME280;67802;50.846;7.958;2023-05-19T11:46:50;98424.19;;;19.25;30.90
78509;BME280;67802;50.846;7.958;2023-05-19T11:49:16;98417.03;;;19.15;30.66
78509;BME280;67802;50.846;7.958;2023-05-19T11:51:45;98433.03;;;19.11;31.03
78509;BME280;67802;50.846;7.958;2023-05-19T11:54:11;98432.28;;;19.09;31.35
78509;BME280;67802;50.846;7.958;2023-05-19T11:56:40;98422.72;;;19.08;31.59
78509;BME280;67802;50.846;7.958;2023-05-19T11:59:09;98412.09;;;19.10;31.26
78509;BME280;67802;50.846;7.958;2023-05-19T12:01:35;98411.56;;;19.05;31.83
78509;BME280;67802;50.846;7.958;2023-05-19T12:04:09;98417.69;;;19.05;31.64
78509;BME280;67802;50.846;7.958;2023-05-19T12:06:34;98410.00;;;19.02;31.85
78509;BME280;67802;50.846;7.958;2023-05-19T12:09:01;98418.09;;;18.99;32.18
78509;BME280;67802;50.846;7.958;2023-05-19T12:11:27;98414.72;;;18.97;32.03
78509;BME280;67802;50.846;7.958;2023-05-19T12:13:57;98419.03;;;18.98;32.76
78509;BME280;67802;50.846;7.958;2023-05-19T12:16:31;98414.59;;;18.98;32.79
78509;BME280;67802;50.846;7.958;2023-05-19T12:18:56;98414.72;;;18.97;32.99
78509;BME280;67802;50.846;7.958;2023-05-19T12:21:22;98406.88;;;18.95;32.77
78509;BME280;67802;50.846;7.958;2023-05-19T12:23:47;98415.53;;;18.84;30.53
78509;BME280;67802;50.846;7.958;2023-05-19T12:26:13;98406.69;;;18.86;31.29
78509;BME280;67802;50.846;7.958;2023-05-19T12:28:38;98405.53;;;18.90;32.02
78509;BME280;67802;50.846;7.958;2023-05-19T12:31:04;98401.84;;;18.92;32.45
78509;BME280;67802;50.846;7.958;2023-05-19T12:33:31;98395.53;;;18.95;32.41
78509;BME280;67802;50.846;7.958;2023-05-19T12:35:57;98403.13;;;19.00;33.01
78509;BME280;67802;50.846;7.958;2023-05-19T12:38:22;98396.84;;;19.02;32.85
78509;BME280;67802;50.846;7.958;2023-05-19T12:40:48;98391.34;;;19.05;33.26
78509;BME280;67802;50.846;7.958;2023-05-19T12:43:20;98381.56;;;19.07;32.61
78509;BME280;67802;50.846;7.958;2023-05-19T12:45:46;98392.59;;;19.12;33.38
78509;BME280;67802;50.846;7.958;2023-05-19T12:48:12;98384.59;;;19.14;33.38
78509;BME280;67802;50.846;7.958;2023-05-19T12:50:39;98372.16;;;19.16;32.82
78509;BME280;67802;50.846;7.958;2023-05-19T12:53:10;98361.28;;;19.21;33.48
78509;BME280;67802;50.846;7.958;2023-05-19T12:55:43;98374.25;;;19.24;33.28
78509;BME280;67802;50.846;7.958;2023-05-19T12:58:13;98376.56;;;19.28;32.75
78509;BME280;67802;50.846;7.958;2023-05-19T13:00:43;98370.34;;;19.30;32.80
78509;BME280;67802;50.846;7.958;2023-05-19T13:03:15;98376.25;;;19.33;33.38
78509;BME280;67802;50.846;7.958;2023-05-19T13:05:42;98373.59;;;19.33;33.02
78509;BME280;67802;50.846;7.958;2023-05-19T13:08:11;98377.94;;;19.34;32.87
78509;BME280;67802;50.846;7.958;2023-05-19T13:10:37;98372.53;;;19.36;32.84
78509;BME280;67802;50.846;7.958;2023-05-19T13:13:04;98376.75;;;19.38;32.70
78509;BME280;67802;50.846;7.958;2023-05-19T13:15:31;98367.91;;;19.39;32.99
78509;BME280;67802;50.846;7.958;2023-05-19T13:17:59;98364.31;;;19.40;33.30
78509;BME280;67802;50.846;7.958;2023-05-19T13:20:24;98369.47;;;19.42;32.82
78509;BME280;67802;50.846;7.958;2023-05-19T13:22:50;98364.94;;;19.44;32.54
78509;BME280;67802;50.846;7.958;2023-05-19T13:25:15;98368.41;;;19.45;32.57
78509;BME280;67802;50.846;7.958;2023-05-19T13:27:41;98364.84;;;19.46;32.63
78509;BME280;67802;50.846;7.958;2023-05-19T13:30:07;98361.13;;;19.48;32.33
78509;BME280;67802;50.846;7.958;2023-05-19T13:32:33;98359.34;;;19.49;32.88